CFG560 LPMA-EDDE
Flight info
| Callsign | CFG560 |
|---|---|
| Flight time | 3h 44m |
| Altitude | 34000 |
| Route | LAPPA DCT GALPA DCT NARTA DCT ESUTI DCT RINOR DCT TOSDI N745 ZMR N976 DGO L176 SSN P181 URUNA DCT SECHE/N0447F360 DCT TIS DCT LUSAR/N0448F350 DCT MOPAN DCT LOHRE N746 ROBEL ROBEL1V |
| Aircraft | A21N/M-SDE2E3FGHIRWXY/LB1 |
Departure
| Time | 2026-04-18 08:51 |
|---|---|
| Airport | Cristiano Ronaldo International Airport (LPMA) |
Arrival
| Time | 2026-04-18 12:36 |
|---|---|
| Airport | Erfurt-Weimar Airport (EDDE) |
| Time | Latitude | Longitude | Altitude | Speed | Heading |
|---|---|---|---|---|---|
| 2026-04-18 08:11 | 32.69415 | -16.77595 | 182 ft | 0 kts | 138° |
| 2026-04-18 08:43 | 32.69428 | -16.77609 | 182 ft | 4 kts | 138° |
| 2026-04-18 08:43 | 32.69446 | -16.77629 | 182 ft | 4 kts | 147° |
| 2026-04-18 08:43 | 32.69466 | -16.77635 | 182 ft | 4 kts | 206° |
| 2026-04-18 08:44 | 32.69484 | -16.77619 | 182 ft | 1 kts | 226° |
| 2026-04-18 08:47 | 32.69479 | -16.77624 | 182 ft | 5 kts | 226° |
| 2026-04-18 08:47 | 32.69447 | -16.77664 | 182 ft | 9 kts | 226° |
| 2026-04-18 08:47 | 32.69391 | -16.77732 | 182 ft | 14 kts | 226° |
| 2026-04-18 08:48 | 32.69315 | -16.77826 | 182 ft | 17 kts | 230° |
| 2026-04-18 08:48 | 32.69288 | -16.77973 | 182 ft | 20 kts | 269° |
| 2026-04-18 08:48 | 32.69216 | -16.78116 | 182 ft | 22 kts | 226° |
| 2026-04-18 08:48 | 32.69108 | -16.78242 | 182 ft | 22 kts | 224° |
| 2026-04-18 08:49 | 32.69013 | -16.78353 | 182 ft | 7 kts | 224° |
| 2026-04-18 08:49 | 32.68961 | -16.78390 | 182 ft | 11 kts | 197° |
| 2026-04-18 08:49 | 32.68894 | -16.78428 | 182 ft | 12 kts | 253° |
| 2026-04-18 08:49 | 32.68950 | -16.78432 | 182 ft | 13 kts | 51° |
| 2026-04-18 08:50 | 32.69014 | -16.78354 | 182 ft | 14 kts | 44° |
| 2026-04-18 08:50 | 32.69043 | -16.78321 | 182 ft | 0 kts | 44° |
| 2026-04-18 08:50 | 32.69122 | -16.78229 | 182 ft | 48 kts | 44° |
| 2026-04-18 08:50 | 32.69533 | -16.77748 | 182 ft | 116 kts | 44° |
| 2026-04-18 08:51 | 32.70233 | -16.76932 | 395 ft | 152 kts | 41° |
| 2026-04-18 08:51 | 32.70963 | -16.75998 | 1082 ft | 159 kts | 57° |
| 2026-04-18 08:51 | 32.71231 | -16.74682 | 1518 ft | 179 kts | 91° |
| 2026-04-18 08:51 | 32.70812 | -16.73196 | 1885 ft | 199 kts | 108° |
| 2026-04-18 08:52 | 32.70267 | -16.71619 | 2329 ft | 214 kts | 108° |
| 2026-04-18 08:52 | 32.69704 | -16.69902 | 2735 ft | 233 kts | 108° |
| 2026-04-18 08:52 | 32.69104 | -16.68038 | 3211 ft | 248 kts | 110° |
| 2026-04-18 08:52 | 32.68490 | -16.66108 | 3950 ft | 252 kts | 112° |
| 2026-04-18 08:53 | 32.67862 | -16.64131 | 4646 ft | 259 kts | 114° |
| 2026-04-18 08:53 | 32.67213 | -16.62088 | 5215 ft | 271 kts | 110° |
| 2026-04-18 08:53 | 32.66977 | -16.59837 | 5810 ft | 283 kts | 86° |
| 2026-04-18 08:53 | 32.67595 | -16.57599 | 6458 ft | 292 kts | 59° |
| 2026-04-18 08:54 | 32.68951 | -16.55787 | 7089 ft | 296 kts | 41° |
| 2026-04-18 08:54 | 32.70520 | -16.54233 | 7763 ft | 300 kts | 39° |
| 2026-04-18 08:54 | 32.72138 | -16.52644 | 8395 ft | 304 kts | 40° |
| 2026-04-18 08:54 | 32.73762 | -16.51008 | 9038 ft | 308 kts | 41° |
| 2026-04-18 08:55 | 32.75398 | -16.49332 | 9675 ft | 312 kts | 41° |
| 2026-04-18 08:55 | 32.77046 | -16.47627 | 10258 ft | 318 kts | 42° |
| 2026-04-18 08:55 | 32.78742 | -16.45855 | 10587 ft | 332 kts | 42° |
| 2026-04-18 08:55 | 32.80521 | -16.44000 | 10859 ft | 349 kts | 41° |
| 2026-04-18 08:56 | 32.82392 | -16.42050 | 11115 ft | 365 kts | 41° |
| 2026-04-18 08:56 | 32.84342 | -16.40008 | 11361 ft | 381 kts | 41° |
| 2026-04-18 08:56 | 32.86373 | -16.37875 | 11610 ft | 397 kts | 41° |
| 2026-04-18 08:56 | 32.88481 | -16.35658 | 11894 ft | 410 kts | 41° |
| 2026-04-18 08:57 | 32.92798 | -16.31110 | 13036 ft | 417 kts | 41° |
| 2026-04-18 08:57 | 32.94977 | -16.28814 | 13617 ft | 420 kts | 41° |
| 2026-04-18 08:57 | 32.97172 | -16.26508 | 14143 ft | 423 kts | 41° |
| 2026-04-18 08:58 | 32.99382 | -16.24185 | 14657 ft | 425 kts | 41° |
| 2026-04-18 08:58 | 33.01611 | -16.21848 | 15193 ft | 427 kts | 41° |
| 2026-04-18 08:58 | 33.03815 | -16.19535 | 15716 ft | 429 kts | 41° |
| 2026-04-18 08:58 | 33.06051 | -16.17177 | 16247 ft | 431 kts | 41° |
| 2026-04-18 08:59 | 33.08301 | -16.14795 | 16797 ft | 433 kts | 41° |
| 2026-04-18 08:59 | 33.10561 | -16.12406 | 17353 ft | 435 kts | 41° |
| 2026-04-18 08:59 | 33.12836 | -16.10003 | 17890 ft | 438 kts | 41° |
| 2026-04-18 08:59 | 33.15125 | -16.07584 | 18416 ft | 441 kts | 41° |
| 2026-04-18 09:00 | 33.17427 | -16.05153 | 18853 ft | 444 kts | 41° |
| 2026-04-18 09:00 | 33.19751 | -16.02699 | 19275 ft | 447 kts | 41° |
| 2026-04-18 09:00 | 33.22078 | -16.00230 | 19711 ft | 450 kts | 41° |
| 2026-04-18 09:00 | 33.24422 | -15.97738 | 20131 ft | 452 kts | 41° |
| 2026-04-18 09:01 | 33.26779 | -15.95232 | 20569 ft | 455 kts | 41° |
| 2026-04-18 09:01 | 33.29146 | -15.92711 | 20989 ft | 457 kts | 41° |
| 2026-04-18 09:01 | 33.31532 | -15.90175 | 21403 ft | 460 kts | 41° |
| 2026-04-18 09:01 | 33.33927 | -15.87622 | 21815 ft | 462 kts | 41° |
| 2026-04-18 09:02 | 33.36334 | -15.85058 | 22223 ft | 465 kts | 41° |
| 2026-04-18 09:02 | 33.38759 | -15.82474 | 22635 ft | 468 kts | 41° |
| 2026-04-18 09:02 | 33.41191 | -15.79877 | 23043 ft | 470 kts | 41° |
| 2026-04-18 09:02 | 33.43641 | -15.77262 | 23452 ft | 472 kts | 41° |
| 2026-04-18 09:03 | 33.46099 | -15.74636 | 23826 ft | 475 kts | 41° |
| 2026-04-18 09:03 | 33.48574 | -15.71992 | 24136 ft | 478 kts | 41° |
| 2026-04-18 09:03 | 33.51033 | -15.69362 | 24443 ft | 480 kts | 41° |
| 2026-04-18 09:03 | 33.53533 | -15.66693 | 24760 ft | 483 kts | 41° |
| 2026-04-18 09:04 | 33.56046 | -15.63999 | 25056 ft | 486 kts | 41° |
| 2026-04-18 09:04 | 33.58568 | -15.61289 | 25365 ft | 488 kts | 41° |
| 2026-04-18 09:04 | 33.61104 | -15.58561 | 25672 ft | 490 kts | 41° |
| 2026-04-18 09:04 | 33.63649 | -15.55828 | 25963 ft | 493 kts | 41° |
| 2026-04-18 09:05 | 33.66209 | -15.53088 | 26317 ft | 493 kts | 41° |
| 2026-04-18 09:05 | 33.68762 | -15.50344 | 26693 ft | 493 kts | 41° |
| 2026-04-18 09:05 | 33.71313 | -15.47600 | 27057 ft | 493 kts | 41° |
| 2026-04-18 09:05 | 33.73871 | -15.44856 | 27419 ft | 493 kts | 41° |
| 2026-04-18 09:06 | 33.76423 | -15.42107 | 27799 ft | 492 kts | 42° |
| 2026-04-18 09:06 | 33.78960 | -15.39351 | 28220 ft | 491 kts | 42° |
| 2026-04-18 09:06 | 33.81488 | -15.36597 | 28609 ft | 490 kts | 42° |
| 2026-04-18 09:06 | 33.84020 | -15.33859 | 28961 ft | 490 kts | 42° |
| 2026-04-18 09:07 | 33.86552 | -15.31120 | 29321 ft | 489 kts | 42° |
| 2026-04-18 09:07 | 33.89080 | -15.28380 | 29663 ft | 489 kts | 42° |
| 2026-04-18 09:07 | 33.91604 | -15.25640 | 30001 ft | 488 kts | 42° |
| 2026-04-18 09:07 | 33.94126 | -15.22903 | 30305 ft | 488 kts | 42° |
| 2026-04-18 09:08 | 33.96648 | -15.20172 | 30570 ft | 488 kts | 42° |
| 2026-04-18 09:08 | 33.99167 | -15.17436 | 30826 ft | 488 kts | 42° |
| 2026-04-18 09:08 | 34.01690 | -15.14696 | 31094 ft | 487 kts | 42° |
| 2026-04-18 09:08 | 34.04201 | -15.11961 | 31342 ft | 487 kts | 42° |
| 2026-04-18 09:09 | 34.06716 | -15.09221 | 31599 ft | 487 kts | 42° |
| 2026-04-18 09:09 | 34.09232 | -15.06487 | 31831 ft | 486 kts | 42° |
| 2026-04-18 09:09 | 34.11711 | -15.03786 | 32071 ft | 486 kts | 42° |
| 2026-04-18 09:09 | 34.14215 | -15.01047 | 32280 ft | 486 kts | 42° |
| 2026-04-18 09:10 | 34.16722 | -14.98303 | 32500 ft | 486 kts | 42° |
| 2026-04-18 09:10 | 34.19221 | -14.95563 | 32712 ft | 485 kts | 42° |
| 2026-04-18 09:10 | 34.21724 | -14.92826 | 32913 ft | 485 kts | 41° |
| 2026-04-18 09:10 | 34.24220 | -14.90088 | 33139 ft | 485 kts | 42° |
| 2026-04-18 09:11 | 34.26718 | -14.87348 | 33313 ft | 485 kts | 41° |
| 2026-04-18 09:11 | 34.29213 | -14.84607 | 33503 ft | 484 kts | 41° |
| 2026-04-18 09:11 | 34.31707 | -14.81867 | 33690 ft | 484 kts | 41° |
| 2026-04-18 09:11 | 34.34200 | -14.79130 | 33863 ft | 484 kts | 41° |
| 2026-04-18 09:12 | 34.36695 | -14.76398 | 34044 ft | 484 kts | 41° |
| 2026-04-18 09:12 | 34.39189 | -14.73658 | 34165 ft | 484 kts | 43° |
| 2026-04-18 09:12 | 34.43891 | -14.67815 | 34160 ft | 484 kts | 46° |
| 2026-04-18 09:13 | 34.48544 | -14.61917 | 34144 ft | 484 kts | 46° |
| 2026-04-18 09:13 | 34.53194 | -14.56004 | 34140 ft | 484 kts | 46° |
| 2026-04-18 09:14 | 34.57828 | -14.50083 | 34143 ft | 484 kts | 46° |
| 2026-04-18 09:14 | 34.62418 | -14.44174 | 34143 ft | 484 kts | 46° |
| 2026-04-18 09:15 | 34.67050 | -14.38239 | 34142 ft | 485 kts | 46° |
| 2026-04-18 09:15 | 34.71699 | -14.32301 | 34142 ft | 485 kts | 46° |
| 2026-04-18 09:16 | 34.76341 | -14.26356 | 34151 ft | 485 kts | 46° |
| 2026-04-18 09:16 | 34.80959 | -14.20379 | 34142 ft | 484 kts | 46° |
| 2026-04-18 09:17 | 34.85570 | -14.14410 | 34150 ft | 484 kts | 46° |
| 2026-04-18 09:17 | 34.90187 | -14.08433 | 34150 ft | 484 kts | 46° |
| 2026-04-18 09:18 | 34.94805 | -14.02462 | 34160 ft | 484 kts | 46° |
| 2026-04-18 09:18 | 34.99425 | -13.96478 | 34152 ft | 484 kts | 46° |
| 2026-04-18 09:19 | 35.04033 | -13.90489 | 34153 ft | 484 kts | 46° |
| 2026-04-18 09:19 | 35.08641 | -13.84493 | 34140 ft | 484 kts | 46° |
| 2026-04-18 09:20 | 35.13241 | -13.78492 | 34150 ft | 484 kts | 46° |
| 2026-04-18 09:20 | 35.17810 | -13.72516 | 34150 ft | 484 kts | 46° |
| 2026-04-18 09:21 | 35.22424 | -13.66515 | 34147 ft | 484 kts | 46° |
| 2026-04-18 09:21 | 35.27039 | -13.60525 | 34145 ft | 484 kts | 46° |
| 2026-04-18 09:22 | 35.31635 | -13.54497 | 34152 ft | 484 kts | 46° |
| 2026-04-18 09:22 | 35.36216 | -13.48454 | 34149 ft | 484 kts | 46° |
| 2026-04-18 09:23 | 35.40808 | -13.42415 | 34151 ft | 484 kts | 46° |
| 2026-04-18 09:23 | 35.45388 | -13.36373 | 34151 ft | 484 kts | 46° |
| 2026-04-18 09:24 | 35.49947 | -13.30305 | 34151 ft | 484 kts | 47° |
| 2026-04-18 09:24 | 35.54514 | -13.24225 | 34146 ft | 484 kts | 46° |
| 2026-04-18 09:25 | 35.59084 | -13.18155 | 34157 ft | 484 kts | 46° |
| 2026-04-18 09:25 | 35.63630 | -13.12133 | 34151 ft | 484 kts | 46° |
| 2026-04-18 09:26 | 35.68188 | -13.06047 | 34149 ft | 483 kts | 46° |
| 2026-04-18 09:26 | 35.72740 | -12.99955 | 34149 ft | 483 kts | 46° |
| 2026-04-18 09:27 | 35.77314 | -12.93879 | 34150 ft | 483 kts | 46° |
| 2026-04-18 09:27 | 35.81865 | -12.87782 | 34159 ft | 483 kts | 47° |
| 2026-04-18 09:28 | 35.86394 | -12.81672 | 34154 ft | 482 kts | 47° |
| 2026-04-18 09:28 | 35.90935 | -12.75588 | 34146 ft | 482 kts | 46° |
| 2026-04-18 09:29 | 35.95461 | -12.69490 | 34147 ft | 482 kts | 46° |
| 2026-04-18 09:29 | 35.99988 | -12.63388 | 34154 ft | 482 kts | 46° |
| 2026-04-18 09:30 | 36.04518 | -12.57289 | 34153 ft | 482 kts | 46° |
| 2026-04-18 09:30 | 36.09331 | -12.51536 | 34171 ft | 481 kts | 42° |
| 2026-04-18 09:31 | 36.14203 | -12.45967 | 34154 ft | 480 kts | 42° |
| 2026-04-18 09:31 | 36.19102 | -12.40343 | 34139 ft | 480 kts | 41° |
| 2026-04-18 09:32 | 36.23993 | -12.34726 | 34149 ft | 479 kts | 41° |
| 2026-04-18 09:32 | 36.28896 | -12.29107 | 34152 ft | 479 kts | 41° |
| 2026-04-18 09:33 | 36.33781 | -12.23479 | 34148 ft | 479 kts | 42° |
| 2026-04-18 09:33 | 36.38678 | -12.17859 | 34153 ft | 479 kts | 41° |
| 2026-04-18 09:34 | 36.43556 | -12.12212 | 34150 ft | 480 kts | 42° |
| 2026-04-18 09:34 | 36.48446 | -12.06574 | 34148 ft | 480 kts | 42° |
| 2026-04-18 09:35 | 36.53303 | -12.00965 | 34146 ft | 479 kts | 42° |
| 2026-04-18 09:35 | 36.58169 | -11.95296 | 34148 ft | 479 kts | 42° |
| 2026-04-18 09:36 | 36.63042 | -11.89621 | 34142 ft | 479 kts | 42° |
| 2026-04-18 09:36 | 36.67917 | -11.83955 | 34149 ft | 479 kts | 42° |
| 2026-04-18 09:37 | 36.71995 | -11.79199 | 34148 ft | 479 kts | 42° |
| 2026-04-18 09:37 | 36.76831 | -11.73545 | 34146 ft | 479 kts | 42° |
| 2026-04-18 09:38 | 36.81681 | -11.67838 | 34145 ft | 479 kts | 42° |
| 2026-04-18 09:38 | 36.86542 | -11.62141 | 34145 ft | 479 kts | 42° |
| 2026-04-18 09:39 | 36.91398 | -11.56437 | 34153 ft | 479 kts | 43° |
| 2026-04-18 09:39 | 36.96226 | -11.50733 | 34143 ft | 477 kts | 42° |
| 2026-04-18 09:40 | 37.01049 | -11.45025 | 34142 ft | 477 kts | 43° |
| 2026-04-18 09:40 | 37.05871 | -11.39323 | 34143 ft | 477 kts | 42° |
| 2026-04-18 09:41 | 37.10701 | -11.33620 | 34144 ft | 477 kts | 42° |
| 2026-04-18 09:41 | 37.15503 | -11.27938 | 34136 ft | 477 kts | 42° |
| 2026-04-18 09:42 | 37.20317 | -11.22225 | 34153 ft | 474 kts | 43° |
| 2026-04-18 09:42 | 37.25087 | -11.16543 | 34146 ft | 473 kts | 43° |
| 2026-04-18 09:43 | 37.29858 | -11.10849 | 34143 ft | 473 kts | 43° |
| 2026-04-18 09:43 | 37.34623 | -11.05142 | 34142 ft | 473 kts | 43° |
| 2026-04-18 09:44 | 37.39380 | -10.99424 | 34141 ft | 473 kts | 43° |
| 2026-04-18 09:44 | 37.44136 | -10.93706 | 34136 ft | 473 kts | 43° |
| 2026-04-18 09:45 | 37.48883 | -10.87994 | 34143 ft | 471 kts | 43° |
| 2026-04-18 09:45 | 37.53627 | -10.82291 | 34139 ft | 471 kts | 43° |
| 2026-04-18 09:46 | 37.58367 | -10.76578 | 34137 ft | 471 kts | 43° |
| 2026-04-18 09:46 | 37.63102 | -10.70856 | 34137 ft | 471 kts | 43° |
| 2026-04-18 09:47 | 37.67834 | -10.65129 | 34138 ft | 471 kts | 43° |
| 2026-04-18 09:47 | 37.72537 | -10.59419 | 34144 ft | 471 kts | 43° |
| 2026-04-18 09:48 | 37.77254 | -10.53685 | 34135 ft | 471 kts | 43° |
| 2026-04-18 09:48 | 37.81976 | -10.47936 | 34136 ft | 471 kts | 43° |
| 2026-04-18 09:49 | 37.86690 | -10.42181 | 34134 ft | 471 kts | 43° |
| 2026-04-18 09:49 | 37.91475 | -10.36524 | 34132 ft | 471 kts | 42° |
| 2026-04-18 09:50 | 37.96260 | -10.30864 | 34131 ft | 471 kts | 42° |
| 2026-04-18 09:50 | 38.01038 | -10.25187 | 34128 ft | 471 kts | 42° |
| 2026-04-18 09:51 | 38.05816 | -10.19509 | 34129 ft | 471 kts | 42° |
| 2026-04-18 09:51 | 38.10588 | -10.13821 | 34129 ft | 471 kts | 42° |
| 2026-04-18 09:52 | 38.15368 | -10.08113 | 34129 ft | 471 kts | 42° |
| 2026-04-18 09:52 | 38.20104 | -10.02450 | 34128 ft | 471 kts | 42° |
| 2026-04-18 09:53 | 38.24872 | -9.96742 | 34121 ft | 471 kts | 42° |
| 2026-04-18 09:53 | 38.29635 | -9.91024 | 34120 ft | 471 kts | 42° |
| 2026-04-18 09:54 | 38.34393 | -9.85296 | 34133 ft | 471 kts | 42° |
| 2026-04-18 09:54 | 38.39148 | -9.79562 | 34125 ft | 471 kts | 42° |
| 2026-04-18 09:55 | 38.43908 | -9.73815 | 34117 ft | 471 kts | 42° |
| 2026-04-18 09:55 | 38.48658 | -9.68070 | 34118 ft | 471 kts | 42° |
| 2026-04-18 09:56 | 38.53414 | -9.62305 | 34119 ft | 472 kts | 42° |
| 2026-04-18 09:56 | 38.58174 | -9.56523 | 34130 ft | 472 kts | 42° |
| 2026-04-18 09:57 | 38.62930 | -9.50728 | 34125 ft | 472 kts | 42° |
| 2026-04-18 09:57 | 38.67680 | -9.44935 | 34128 ft | 472 kts | 42° |
| 2026-04-18 09:58 | 38.72432 | -9.39135 | 34124 ft | 472 kts | 42° |
| 2026-04-18 09:58 | 38.77188 | -9.33328 | 34109 ft | 473 kts | 42° |
| 2026-04-18 09:59 | 38.81940 | -9.27502 | 34105 ft | 473 kts | 42° |
| 2026-04-18 10:00 | 38.89034 | -9.18781 | 34112 ft | 473 kts | 42° |
| 2026-04-18 10:00 | 38.93784 | -9.12927 | 34123 ft | 473 kts | 42° |
| 2026-04-18 10:01 | 38.98535 | -9.07061 | 34122 ft | 473 kts | 43° |
| 2026-04-18 10:01 | 39.03279 | -9.01194 | 34128 ft | 474 kts | 42° |
| 2026-04-18 10:02 | 39.08029 | -8.95304 | 34128 ft | 474 kts | 42° |
| 2026-04-18 10:02 | 39.12776 | -8.89405 | 34136 ft | 474 kts | 42° |
| 2026-04-18 10:03 | 39.17522 | -8.83501 | 34135 ft | 474 kts | 42° |
| 2026-04-18 10:03 | 39.22195 | -8.77561 | 34137 ft | 474 kts | 45° |
| 2026-04-18 10:04 | 39.26750 | -8.71409 | 34134 ft | 474 kts | 45° |
| 2026-04-18 10:04 | 39.31310 | -8.65231 | 34135 ft | 475 kts | 45° |
| 2026-04-18 10:05 | 39.35872 | -8.59041 | 34136 ft | 476 kts | 45° |
| 2026-04-18 10:05 | 39.40433 | -8.52834 | 34132 ft | 476 kts | 45° |
| 2026-04-18 10:06 | 39.44983 | -8.46612 | 34136 ft | 476 kts | 45° |
| 2026-04-18 10:06 | 39.49534 | -8.40394 | 34132 ft | 476 kts | 45° |
| 2026-04-18 10:07 | 39.54047 | -8.34218 | 34129 ft | 474 kts | 45° |
| 2026-04-18 10:07 | 39.58592 | -8.27986 | 34127 ft | 476 kts | 45° |
| 2026-04-18 10:08 | 39.63142 | -8.21733 | 34130 ft | 477 kts | 45° |
| 2026-04-18 10:08 | 39.67692 | -8.15459 | 34233 ft | 478 kts | 45° |
| 2026-04-18 10:08 | 39.69974 | -8.12319 | 34411 ft | 477 kts | 45° |
| 2026-04-18 10:09 | 39.72245 | -8.09186 | 34569 ft | 477 kts | 45° |
| 2026-04-18 10:09 | 39.74519 | -8.06054 | 34733 ft | 476 kts | 45° |
| 2026-04-18 10:09 | 39.76793 | -8.02928 | 34889 ft | 476 kts | 45° |
| 2026-04-18 10:09 | 39.79066 | -7.99797 | 35054 ft | 475 kts | 45° |
| 2026-04-18 10:10 | 39.81330 | -7.96668 | 35192 ft | 475 kts | 45° |
| 2026-04-18 10:10 | 39.83592 | -7.93530 | 35320 ft | 475 kts | 45° |
| 2026-04-18 10:10 | 39.85854 | -7.90392 | 35454 ft | 475 kts | 45° |
| 2026-04-18 10:10 | 39.88111 | -7.87253 | 35578 ft | 475 kts | 45° |
| 2026-04-18 10:11 | 39.90370 | -7.84109 | 35682 ft | 475 kts | 45° |
| 2026-04-18 10:11 | 39.92629 | -7.80966 | 35797 ft | 475 kts | 45° |
| 2026-04-18 10:11 | 39.94886 | -7.77820 | 35907 ft | 475 kts | 45° |
| 2026-04-18 10:11 | 39.97142 | -7.74670 | 36016 ft | 475 kts | 45° |
| 2026-04-18 10:12 | 39.99394 | -7.71518 | 36124 ft | 475 kts | 45° |
| 2026-04-18 10:12 | 40.03866 | -7.65254 | 36146 ft | 474 kts | 45° |
| 2026-04-18 10:13 | 40.08358 | -7.58951 | 36130 ft | 474 kts | 45° |
| 2026-04-18 10:13 | 40.12863 | -7.52621 | 36131 ft | 476 kts | 45° |
| 2026-04-18 10:14 | 40.17373 | -7.46280 | 36132 ft | 476 kts | 45° |
| 2026-04-18 10:14 | 40.21860 | -7.39920 | 36132 ft | 476 kts | 46° |
| 2026-04-18 10:15 | 40.26342 | -7.33552 | 36141 ft | 475 kts | 45° |
| 2026-04-18 10:15 | 40.30837 | -7.27195 | 36140 ft | 475 kts | 45° |
| 2026-04-18 10:16 | 40.35315 | -7.20835 | 36134 ft | 475 kts | 45° |
| 2026-04-18 10:16 | 40.39799 | -7.14447 | 36135 ft | 476 kts | 45° |
| 2026-04-18 10:17 | 40.44288 | -7.08056 | 36139 ft | 476 kts | 45° |
| 2026-04-18 10:17 | 40.48746 | -7.01691 | 36139 ft | 476 kts | 45° |
| 2026-04-18 10:18 | 40.53230 | -6.95280 | 36138 ft | 476 kts | 46° |
| 2026-04-18 10:18 | 40.57710 | -6.88854 | 36140 ft | 476 kts | 46° |
| 2026-04-18 10:19 | 40.62181 | -6.82423 | 36139 ft | 477 kts | 46° |
| 2026-04-18 10:19 | 40.66667 | -6.75972 | 36142 ft | 477 kts | 46° |
| 2026-04-18 10:20 | 40.71143 | -6.69493 | 36138 ft | 477 kts | 46° |
| 2026-04-18 10:20 | 40.75592 | -6.63063 | 36141 ft | 478 kts | 46° |
| 2026-04-18 10:21 | 40.80063 | -6.56566 | 36137 ft | 478 kts | 46° |
| 2026-04-18 10:21 | 40.84523 | -6.50052 | 36137 ft | 478 kts | 46° |
| 2026-04-18 10:22 | 40.89001 | -6.43556 | 36136 ft | 478 kts | 46° |
| 2026-04-18 10:22 | 40.93476 | -6.37040 | 36138 ft | 478 kts | 46° |
| 2026-04-18 10:23 | 40.97950 | -6.30527 | 36142 ft | 479 kts | 46° |
| 2026-04-18 10:23 | 41.02764 | -6.24472 | 36143 ft | 477 kts | 40° |
| 2026-04-18 10:24 | 41.07705 | -6.18603 | 36145 ft | 477 kts | 40° |
| 2026-04-18 10:24 | 41.12637 | -6.12712 | 36145 ft | 477 kts | 40° |
| 2026-04-18 10:25 | 41.17563 | -6.06810 | 36141 ft | 477 kts | 40° |
| 2026-04-18 10:25 | 41.21656 | -6.01902 | 36165 ft | 477 kts | 40° |
| 2026-04-18 10:26 | 41.26587 | -5.95983 | 36166 ft | 478 kts | 40° |
| 2026-04-18 10:26 | 41.31507 | -5.90053 | 36171 ft | 477 kts | 40° |
| 2026-04-18 10:27 | 41.36426 | -5.84116 | 36165 ft | 477 kts | 40° |
| 2026-04-18 10:27 | 41.41347 | -5.78163 | 36183 ft | 477 kts | 40° |
| 2026-04-18 10:28 | 41.46231 | -5.72237 | 36190 ft | 478 kts | 40° |
| 2026-04-18 10:28 | 41.51116 | -5.66220 | 36185 ft | 479 kts | 44° |
| 2026-04-18 10:28 | 41.53227 | -5.62774 | 36187 ft | 481 kts | 56° |
| 2026-04-18 10:29 | 41.54815 | -5.58852 | 36195 ft | 481 kts | 65° |
| 2026-04-18 10:29 | 41.57494 | -5.50668 | 36187 ft | 481 kts | 67° |
| 2026-04-18 10:30 | 41.60161 | -5.42472 | 36188 ft | 481 kts | 66° |
| 2026-04-18 10:30 | 41.62874 | -5.34304 | 36180 ft | 481 kts | 66° |
| 2026-04-18 10:31 | 41.65580 | -5.26117 | 36217 ft | 481 kts | 66° |
| 2026-04-18 10:31 | 41.68278 | -5.17930 | 36210 ft | 481 kts | 66° |
| 2026-04-18 10:32 | 41.70972 | -5.09729 | 36216 ft | 481 kts | 66° |
| 2026-04-18 10:32 | 41.73655 | -5.01534 | 36230 ft | 481 kts | 66° |
| 2026-04-18 10:33 | 41.76333 | -4.93326 | 36230 ft | 481 kts | 66° |
| 2026-04-18 10:33 | 41.78996 | -4.85104 | 36232 ft | 481 kts | 66° |
| 2026-04-18 10:34 | 41.81636 | -4.76940 | 36225 ft | 481 kts | 67° |
| 2026-04-18 10:34 | 41.84577 | -4.68900 | 36210 ft | 481 kts | 54° |
| 2026-04-18 10:35 | 41.88514 | -4.61662 | 36198 ft | 480 kts | 53° |
| 2026-04-18 10:35 | 41.92452 | -4.54408 | 36198 ft | 481 kts | 53° |
| 2026-04-18 10:36 | 41.96361 | -4.47099 | 36201 ft | 481 kts | 53° |
| 2026-04-18 10:36 | 42.00258 | -4.39772 | 36199 ft | 481 kts | 53° |
| 2026-04-18 10:37 | 42.04149 | -4.32448 | 36201 ft | 481 kts | 53° |
| 2026-04-18 10:37 | 42.08036 | -4.25108 | 36198 ft | 481 kts | 53° |
| 2026-04-18 10:38 | 42.11942 | -4.17794 | 36197 ft | 481 kts | 53° |
| 2026-04-18 10:38 | 42.15830 | -4.10428 | 36201 ft | 483 kts | 54° |
| 2026-04-18 10:39 | 42.19668 | -4.03077 | 36197 ft | 482 kts | 54° |
| 2026-04-18 10:39 | 42.23531 | -3.95683 | 36204 ft | 482 kts | 54° |
| 2026-04-18 10:40 | 42.27396 | -3.88280 | 36205 ft | 482 kts | 54° |
| 2026-04-18 10:40 | 42.31260 | -3.80870 | 36196 ft | 482 kts | 54° |
| 2026-04-18 10:41 | 42.35115 | -3.73470 | 36264 ft | 481 kts | 53° |
| 2026-04-18 10:41 | 42.38962 | -3.66063 | 36260 ft | 481 kts | 54° |
| 2026-04-18 10:42 | 42.42807 | -3.58648 | 36257 ft | 481 kts | 54° |
| 2026-04-18 10:42 | 42.46642 | -3.51225 | 36253 ft | 481 kts | 54° |
| 2026-04-18 10:43 | 42.50476 | -3.43789 | 36247 ft | 481 kts | 54° |
| 2026-04-18 10:43 | 42.54310 | -3.36354 | 36235 ft | 481 kts | 54° |
| 2026-04-18 10:44 | 42.58111 | -3.28962 | 36246 ft | 481 kts | 54° |
| 2026-04-18 10:44 | 42.61938 | -3.21490 | 36233 ft | 481 kts | 54° |
| 2026-04-18 10:45 | 42.65745 | -3.14014 | 36243 ft | 481 kts | 54° |
| 2026-04-18 10:45 | 42.69547 | -3.06528 | 36251 ft | 481 kts | 54° |
| 2026-04-18 10:46 | 42.73352 | -2.99035 | 36257 ft | 482 kts | 54° |
| 2026-04-18 10:46 | 42.77154 | -2.91520 | 36268 ft | 482 kts | 54° |
| 2026-04-18 10:47 | 42.80950 | -2.84002 | 36259 ft | 482 kts | 54° |
| 2026-04-18 10:47 | 42.84760 | -2.76490 | 36268 ft | 482 kts | 54° |
| 2026-04-18 10:48 | 42.88537 | -2.69005 | 36262 ft | 482 kts | 54° |
| 2026-04-18 10:48 | 42.92340 | -2.61476 | 36252 ft | 482 kts | 54° |
| 2026-04-18 10:49 | 42.96120 | -2.53923 | 36252 ft | 482 kts | 54° |
| 2026-04-18 10:49 | 42.99897 | -2.46354 | 36277 ft | 482 kts | 54° |
| 2026-04-18 10:50 | 43.03678 | -2.38771 | 36269 ft | 483 kts | 54° |
| 2026-04-18 10:50 | 43.07456 | -2.31166 | 36262 ft | 483 kts | 54° |
| 2026-04-18 10:51 | 43.11225 | -2.23548 | 36254 ft | 483 kts | 54° |
| 2026-04-18 10:51 | 43.14990 | -2.15930 | 36254 ft | 483 kts | 55° |
| 2026-04-18 10:52 | 43.18750 | -2.08299 | 36259 ft | 483 kts | 55° |
| 2026-04-18 10:52 | 43.22502 | -2.00649 | 36267 ft | 483 kts | 55° |
| 2026-04-18 10:53 | 43.26259 | -1.92999 | 36258 ft | 484 kts | 55° |
| 2026-04-18 10:53 | 43.30007 | -1.85334 | 36284 ft | 483 kts | 55° |
| 2026-04-18 10:54 | 43.33741 | -1.77666 | 36288 ft | 483 kts | 55° |
| 2026-04-18 10:54 | 43.37468 | -1.70046 | 36290 ft | 483 kts | 54° |
| 2026-04-18 10:55 | 43.41279 | -1.62432 | 36264 ft | 483 kts | 54° |
| 2026-04-18 10:55 | 43.45075 | -1.54799 | 36267 ft | 484 kts | 54° |
| 2026-04-18 10:56 | 43.48866 | -1.47148 | 36259 ft | 483 kts | 54° |
| 2026-04-18 10:56 | 43.52644 | -1.39496 | 36258 ft | 483 kts | 54° |
| 2026-04-18 10:57 | 43.56415 | -1.31834 | 36255 ft | 483 kts | 54° |
| 2026-04-18 10:57 | 43.60189 | -1.24161 | 36257 ft | 483 kts | 54° |
| 2026-04-18 10:58 | 43.63958 | -1.16480 | 36269 ft | 484 kts | 54° |
| 2026-04-18 10:58 | 43.67695 | -1.08834 | 36258 ft | 483 kts | 54° |
| 2026-04-18 10:59 | 43.71444 | -1.01133 | 36261 ft | 483 kts | 54° |
| 2026-04-18 10:59 | 43.75192 | -0.93431 | 36247 ft | 483 kts | 54° |
| 2026-04-18 11:00 | 43.78935 | -0.85712 | 36250 ft | 483 kts | 54° |
| 2026-04-18 11:00 | 43.82674 | -0.77976 | 36255 ft | 483 kts | 54° |
| 2026-04-18 11:01 | 43.86375 | -0.70292 | 36259 ft | 482 kts | 54° |
| 2026-04-18 11:01 | 43.90094 | -0.62543 | 36263 ft | 482 kts | 54° |
| 2026-04-18 11:02 | 43.95664 | -0.50933 | 36259 ft | 482 kts | 55° |
| 2026-04-18 11:02 | 43.99374 | -0.43181 | 36258 ft | 482 kts | 55° |
| 2026-04-18 11:03 | 44.03083 | -0.35430 | 36275 ft | 482 kts | 55° |
| 2026-04-18 11:03 | 44.06786 | -0.27639 | 36255 ft | 483 kts | 55° |
| 2026-04-18 11:04 | 44.10482 | -0.19835 | 36245 ft | 483 kts | 55° |
| 2026-04-18 11:04 | 44.14176 | -0.12027 | 36239 ft | 483 kts | 55° |
| 2026-04-18 11:05 | 44.17844 | -0.04257 | 36232 ft | 483 kts | 55° |
| 2026-04-18 11:05 | 44.21523 | 0.03565 | 36231 ft | 482 kts | 55° |
| 2026-04-18 11:06 | 44.25185 | 0.11386 | 36236 ft | 482 kts | 55° |
| 2026-04-18 11:06 | 44.28854 | 0.19232 | 36234 ft | 482 kts | 55° |
| 2026-04-18 11:07 | 44.32518 | 0.27083 | 36233 ft | 482 kts | 55° |
| 2026-04-18 11:07 | 44.36173 | 0.34931 | 36238 ft | 482 kts | 55° |
| 2026-04-18 11:08 | 44.39823 | 0.42791 | 36226 ft | 481 kts | 56° |
| 2026-04-18 11:08 | 44.43456 | 0.50639 | 36241 ft | 481 kts | 55° |
| 2026-04-18 11:09 | 44.47261 | 0.58338 | 36231 ft | 481 kts | 53° |
| 2026-04-18 11:09 | 44.51095 | 0.66017 | 36230 ft | 481 kts | 53° |
| 2026-04-18 11:10 | 44.54923 | 0.73712 | 36228 ft | 481 kts | 53° |
| 2026-04-18 11:10 | 44.58741 | 0.81404 | 36229 ft | 480 kts | 53° |
| 2026-04-18 11:11 | 44.62525 | 0.89049 | 36233 ft | 480 kts | 53° |
| 2026-04-18 11:11 | 44.66329 | 0.96757 | 36225 ft | 480 kts | 53° |
| 2026-04-18 11:12 | 44.70126 | 1.04480 | 36219 ft | 480 kts | 53° |
| 2026-04-18 11:12 | 44.73922 | 1.12204 | 36218 ft | 480 kts | 53° |
| 2026-04-18 11:13 | 44.77715 | 1.19955 | 36212 ft | 479 kts | 54° |
| 2026-04-18 11:13 | 44.81495 | 1.27696 | 36212 ft | 479 kts | 54° |
| 2026-04-18 11:14 | 44.85266 | 1.35444 | 36210 ft | 479 kts | 54° |
| 2026-04-18 11:14 | 44.89035 | 1.43198 | 36210 ft | 479 kts | 54° |
| 2026-04-18 11:15 | 44.92790 | 1.50955 | 36213 ft | 479 kts | 54° |
| 2026-04-18 11:15 | 44.96518 | 1.58680 | 36210 ft | 478 kts | 54° |
| 2026-04-18 11:16 | 45.00256 | 1.66444 | 36230 ft | 478 kts | 54° |
| 2026-04-18 11:16 | 45.03999 | 1.74226 | 36224 ft | 478 kts | 54° |
| 2026-04-18 11:17 | 45.07122 | 1.80750 | 36216 ft | 478 kts | 54° |
| 2026-04-18 11:17 | 45.10849 | 1.88553 | 36212 ft | 478 kts | 54° |
| 2026-04-18 11:18 | 45.14528 | 1.96323 | 36210 ft | 477 kts | 54° |
| 2026-04-18 11:18 | 45.18223 | 2.04124 | 36226 ft | 477 kts | 54° |
| 2026-04-18 11:19 | 45.21952 | 2.11928 | 36213 ft | 478 kts | 54° |
| 2026-04-18 11:19 | 45.25662 | 2.19753 | 36209 ft | 478 kts | 54° |
| 2026-04-18 11:20 | 45.29366 | 2.27599 | 36214 ft | 478 kts | 54° |
| 2026-04-18 11:20 | 45.33050 | 2.35454 | 36214 ft | 477 kts | 54° |
| 2026-04-18 11:21 | 45.36724 | 2.43302 | 36227 ft | 477 kts | 54° |
| 2026-04-18 11:21 | 45.40411 | 2.51159 | 36223 ft | 477 kts | 54° |
| 2026-04-18 11:22 | 45.44075 | 2.59038 | 36219 ft | 477 kts | 54° |
| 2026-04-18 11:22 | 45.47711 | 2.66873 | 36224 ft | 477 kts | 54° |
| 2026-04-18 11:23 | 45.51374 | 2.74764 | 36217 ft | 477 kts | 54° |
| 2026-04-18 11:23 | 45.55022 | 2.82657 | 36242 ft | 476 kts | 54° |
| 2026-04-18 11:24 | 45.58668 | 2.90560 | 36221 ft | 477 kts | 54° |
| 2026-04-18 11:24 | 45.62310 | 2.98486 | 36236 ft | 477 kts | 55° |
| 2026-04-18 11:25 | 45.65947 | 3.06410 | 36228 ft | 477 kts | 55° |
| 2026-04-18 11:25 | 45.69586 | 3.14351 | 36228 ft | 477 kts | 54° |
| 2026-04-18 11:26 | 45.73187 | 3.22243 | 36236 ft | 476 kts | 55° |
| 2026-04-18 11:26 | 45.76831 | 3.30252 | 36232 ft | 477 kts | 55° |
| 2026-04-18 11:27 | 45.80425 | 3.38176 | 36236 ft | 477 kts | 55° |
| 2026-04-18 11:27 | 45.84038 | 3.46159 | 36221 ft | 477 kts | 55° |
| 2026-04-18 11:28 | 45.87648 | 3.54162 | 36227 ft | 477 kts | 54° |
| 2026-04-18 11:28 | 45.91460 | 3.61957 | 36230 ft | 477 kts | 52° |
| 2026-04-18 11:29 | 45.95316 | 3.69716 | 36228 ft | 477 kts | 52° |
| 2026-04-18 11:29 | 45.99165 | 3.77487 | 36222 ft | 477 kts | 52° |
| 2026-04-18 11:30 | 46.03010 | 3.85275 | 36219 ft | 478 kts | 52° |
| 2026-04-18 11:30 | 46.06852 | 3.93081 | 36218 ft | 478 kts | 52° |
| 2026-04-18 11:31 | 46.10660 | 4.00838 | 36221 ft | 476 kts | 52° |
| 2026-04-18 11:31 | 46.14480 | 4.08637 | 36216 ft | 476 kts | 52° |
| 2026-04-18 11:32 | 46.18297 | 4.16456 | 36213 ft | 476 kts | 52° |
| 2026-04-18 11:32 | 46.22107 | 4.24280 | 36214 ft | 476 kts | 53° |
| 2026-04-18 11:33 | 46.25912 | 4.32124 | 36216 ft | 476 kts | 53° |
| 2026-04-18 11:33 | 46.29710 | 4.39974 | 36230 ft | 477 kts | 53° |
| 2026-04-18 11:34 | 46.33511 | 4.47843 | 36216 ft | 476 kts | 53° |
| 2026-04-18 11:34 | 46.37304 | 4.55714 | 36216 ft | 476 kts | 53° |
| 2026-04-18 11:35 | 46.41085 | 4.63590 | 36218 ft | 476 kts | 53° |
| 2026-04-18 11:35 | 46.44863 | 4.71482 | 36219 ft | 477 kts | 53° |
| 2026-04-18 11:36 | 46.48611 | 4.79335 | 36221 ft | 477 kts | 53° |
| 2026-04-18 11:36 | 46.52377 | 4.87269 | 36211 ft | 476 kts | 53° |
| 2026-04-18 11:37 | 46.56135 | 4.95186 | 36215 ft | 475 kts | 53° |
| 2026-04-18 11:37 | 46.59886 | 5.03105 | 36215 ft | 476 kts | 53° |
| 2026-04-18 11:38 | 46.63631 | 5.11037 | 36217 ft | 476 kts | 53° |
| 2026-04-18 11:38 | 46.67432 | 5.18919 | 36215 ft | 474 kts | 49° |
| 2026-04-18 11:39 | 46.71585 | 5.26381 | 36212 ft | 474 kts | 48° |
| 2026-04-18 11:39 | 46.75739 | 5.33824 | 36210 ft | 472 kts | 48° |
| 2026-04-18 11:40 | 46.79874 | 5.41265 | 36207 ft | 472 kts | 48° |
| 2026-04-18 11:40 | 46.83977 | 5.48679 | 36216 ft | 472 kts | 48° |
| 2026-04-18 11:41 | 46.88110 | 5.56153 | 36210 ft | 473 kts | 49° |
| 2026-04-18 11:41 | 46.92232 | 5.63629 | 36214 ft | 473 kts | 49° |
| 2026-04-18 11:42 | 46.96361 | 5.71132 | 36215 ft | 473 kts | 49° |
| 2026-04-18 11:42 | 47.00471 | 5.78628 | 36213 ft | 471 kts | 49° |
| 2026-04-18 11:43 | 47.04569 | 5.86123 | 36221 ft | 471 kts | 49° |
| 2026-04-18 11:43 | 47.08668 | 5.93644 | 36217 ft | 472 kts | 49° |
| 2026-04-18 11:44 | 47.12759 | 6.01171 | 36215 ft | 472 kts | 49° |
| 2026-04-18 11:44 | 47.16853 | 6.08721 | 36215 ft | 472 kts | 49° |
| 2026-04-18 11:45 | 47.20935 | 6.16273 | 36216 ft | 472 kts | 49° |
| 2026-04-18 11:45 | 47.24999 | 6.23808 | 36219 ft | 472 kts | 49° |
| 2026-04-18 11:46 | 47.29067 | 6.31372 | 36214 ft | 471 kts | 49° |
| 2026-04-18 11:46 | 47.33126 | 6.38947 | 36213 ft | 471 kts | 49° |
| 2026-04-18 11:47 | 47.37180 | 6.46530 | 36216 ft | 471 kts | 49° |
| 2026-04-18 11:47 | 47.41230 | 6.54126 | 36221 ft | 471 kts | 49° |
| 2026-04-18 11:48 | 47.45285 | 6.61751 | 36206 ft | 471 kts | 50° |
| 2026-04-18 11:48 | 47.49330 | 6.69383 | 36206 ft | 471 kts | 50° |
| 2026-04-18 11:49 | 47.53359 | 6.77001 | 36199 ft | 470 kts | 50° |
| 2026-04-18 11:49 | 47.57381 | 6.84630 | 36204 ft | 470 kts | 50° |
| 2026-04-18 11:50 | 47.61397 | 6.92266 | 36215 ft | 470 kts | 50° |
| 2026-04-18 11:50 | 47.65415 | 6.99931 | 36204 ft | 471 kts | 50° |
| 2026-04-18 11:51 | 47.69403 | 7.07558 | 36194 ft | 471 kts | 50° |
| 2026-04-18 11:51 | 47.73413 | 7.15250 | 36195 ft | 471 kts | 50° |
| 2026-04-18 11:52 | 47.77410 | 7.22935 | 36194 ft | 469 kts | 50° |
| 2026-04-18 11:52 | 47.81395 | 7.30622 | 36182 ft | 469 kts | 50° |
| 2026-04-18 11:53 | 47.85381 | 7.38332 | 36181 ft | 470 kts | 50° |
| 2026-04-18 11:53 | 47.89357 | 7.46045 | 36181 ft | 470 kts | 50° |
| 2026-04-18 11:54 | 47.93334 | 7.53777 | 36191 ft | 470 kts | 50° |
| 2026-04-18 11:54 | 47.97299 | 7.61522 | 36204 ft | 470 kts | 50° |
| 2026-04-18 11:55 | 48.01269 | 7.69281 | 36194 ft | 469 kts | 50° |
| 2026-04-18 11:55 | 48.05221 | 7.77033 | 36197 ft | 468 kts | 51° |
| 2026-04-18 11:56 | 48.09160 | 7.84787 | 36200 ft | 469 kts | 51° |
| 2026-04-18 11:56 | 48.13077 | 7.92513 | 36200 ft | 469 kts | 51° |
| 2026-04-18 11:57 | 48.17014 | 8.00302 | 36195 ft | 469 kts | 51° |
| 2026-04-18 11:57 | 48.20947 | 8.08107 | 36185 ft | 469 kts | 51° |
| 2026-04-18 11:58 | 48.25300 | 8.15308 | 36183 ft | 464 kts | 35° |
| 2026-04-18 11:58 | 48.28005 | 8.17902 | 36186 ft | 459 kts | 24° |
| 2026-04-18 11:58 | 48.30881 | 8.19977 | 36189 ft | 458 kts | 21° |
| 2026-04-18 11:59 | 48.36675 | 8.23973 | 36197 ft | 459 kts | 21° |
| 2026-04-18 11:59 | 48.42468 | 8.28041 | 36190 ft | 459 kts | 21° |
| 2026-04-18 12:00 | 48.48259 | 8.32143 | 36184 ft | 460 kts | 22° |
| 2026-04-18 12:00 | 48.54051 | 8.36264 | 36183 ft | 460 kts | 22° |
| 2026-04-18 12:01 | 48.62739 | 8.42445 | 36173 ft | 460 kts | 22° |
| 2026-04-18 12:02 | 48.68486 | 8.46548 | 36181 ft | 460 kts | 22° |
| 2026-04-18 12:02 | 48.74271 | 8.50695 | 36175 ft | 460 kts | 22° |
| 2026-04-18 12:03 | 48.80054 | 8.54851 | 36180 ft | 461 kts | 22° |
| 2026-04-18 12:03 | 48.85850 | 8.59025 | 36180 ft | 461 kts | 22° |
| 2026-04-18 12:04 | 48.91644 | 8.63210 | 36179 ft | 461 kts | 22° |
| 2026-04-18 12:04 | 48.97446 | 8.67416 | 36179 ft | 461 kts | 22° |
| 2026-04-18 12:05 | 49.03247 | 8.71626 | 36180 ft | 462 kts | 22° |
| 2026-04-18 12:05 | 49.09054 | 8.75857 | 36179 ft | 462 kts | 22° |
| 2026-04-18 12:06 | 49.14857 | 8.80096 | 36178 ft | 462 kts | 22° |
| 2026-04-18 12:06 | 49.19679 | 8.83620 | 36199 ft | 463 kts | 22° |
| 2026-04-18 12:07 | 49.25500 | 8.87887 | 36181 ft | 464 kts | 22° |
| 2026-04-18 12:07 | 49.31317 | 8.92168 | 36170 ft | 462 kts | 22° |
| 2026-04-18 12:08 | 49.37103 | 8.96440 | 36173 ft | 461 kts | 22° |
| 2026-04-18 12:08 | 49.42884 | 9.00708 | 36184 ft | 462 kts | 22° |
| 2026-04-18 12:09 | 49.48677 | 9.05001 | 36179 ft | 462 kts | 22° |
| 2026-04-18 12:09 | 49.54475 | 9.09312 | 36177 ft | 462 kts | 22° |
| 2026-04-18 12:10 | 49.60269 | 9.13630 | 36177 ft | 463 kts | 22° |
| 2026-04-18 12:10 | 49.66071 | 9.17964 | 36181 ft | 463 kts | 22° |
| 2026-04-18 12:11 | 49.71875 | 9.22310 | 36180 ft | 463 kts | 22° |
| 2026-04-18 12:11 | 49.77669 | 9.26666 | 36180 ft | 463 kts | 23° |
| 2026-04-18 12:12 | 49.83420 | 9.31055 | 36194 ft | 465 kts | 27° |
| 2026-04-18 12:12 | 49.85996 | 9.34122 | 36177 ft | 471 kts | 44° |
| 2026-04-18 12:12 | 49.88179 | 9.37926 | 35952 ft | 472 kts | 48° |
| 2026-04-18 12:12 | 49.90278 | 9.41823 | 35469 ft | 471 kts | 48° |
| 2026-04-18 12:13 | 49.92384 | 9.45713 | 34895 ft | 470 kts | 48° |
| 2026-04-18 12:13 | 49.94508 | 9.49582 | 34300 ft | 470 kts | 47° |
| 2026-04-18 12:13 | 49.96639 | 9.53433 | 33623 ft | 471 kts | 47° |
| 2026-04-18 12:13 | 49.98783 | 9.57300 | 32924 ft | 472 kts | 47° |
| 2026-04-18 12:14 | 50.00925 | 9.61170 | 32231 ft | 473 kts | 47° |
| 2026-04-18 12:14 | 50.03065 | 9.65040 | 31563 ft | 472 kts | 47° |
| 2026-04-18 12:14 | 50.05203 | 9.68916 | 30901 ft | 473 kts | 47° |
| 2026-04-18 12:14 | 50.07345 | 9.72806 | 30245 ft | 474 kts | 47° |
| 2026-04-18 12:15 | 50.09492 | 9.76708 | 29489 ft | 475 kts | 47° |
| 2026-04-18 12:15 | 50.11649 | 9.80632 | 28732 ft | 477 kts | 47° |
| 2026-04-18 12:15 | 50.13807 | 9.84568 | 27986 ft | 478 kts | 47° |
| 2026-04-18 12:15 | 50.15971 | 9.88515 | 27258 ft | 480 kts | 47° |
| 2026-04-18 12:16 | 50.18132 | 9.92469 | 26544 ft | 477 kts | 47° |
| 2026-04-18 12:16 | 50.20274 | 9.96393 | 25852 ft | 472 kts | 47° |
| 2026-04-18 12:16 | 50.22391 | 10.00276 | 25189 ft | 468 kts | 47° |
| 2026-04-18 12:16 | 50.24488 | 10.04129 | 24560 ft | 464 kts | 48° |
| 2026-04-18 12:17 | 50.26566 | 10.07954 | 23934 ft | 460 kts | 48° |
| 2026-04-18 12:17 | 50.28627 | 10.11750 | 23229 ft | 455 kts | 48° |
| 2026-04-18 12:17 | 50.30662 | 10.15505 | 22498 ft | 450 kts | 48° |
| 2026-04-18 12:17 | 50.32673 | 10.19222 | 21789 ft | 445 kts | 48° |
| 2026-04-18 12:18 | 50.34654 | 10.22885 | 21093 ft | 438 kts | 47° |
| 2026-04-18 12:18 | 50.36610 | 10.26510 | 20412 ft | 433 kts | 47° |
| 2026-04-18 12:18 | 50.38545 | 10.30099 | 19745 ft | 429 kts | 47° |
| 2026-04-18 12:18 | 50.40433 | 10.33612 | 19105 ft | 425 kts | 47° |
| 2026-04-18 12:19 | 50.42327 | 10.37135 | 18475 ft | 422 kts | 47° |
| 2026-04-18 12:19 | 50.44209 | 10.40642 | 17767 ft | 417 kts | 47° |
| 2026-04-18 12:19 | 50.46067 | 10.44107 | 17088 ft | 412 kts | 47° |
| 2026-04-18 12:19 | 50.47901 | 10.47535 | 16446 ft | 408 kts | 48° |
| 2026-04-18 12:20 | 50.49719 | 10.50936 | 15818 ft | 403 kts | 48° |
| 2026-04-18 12:20 | 50.51512 | 10.54297 | 15206 ft | 399 kts | 48° |
| 2026-04-18 12:20 | 50.53288 | 10.57627 | 14636 ft | 395 kts | 49° |
| 2026-04-18 12:20 | 50.55049 | 10.60929 | 14115 ft | 392 kts | 49° |
| 2026-04-18 12:21 | 50.56793 | 10.64207 | 13528 ft | 389 kts | 49° |
| 2026-04-18 12:21 | 50.58519 | 10.67458 | 12952 ft | 386 kts | 49° |
| 2026-04-18 12:21 | 50.60001 | 10.70959 | 12364 ft | 386 kts | 64° |
| 2026-04-18 12:21 | 50.60925 | 10.74920 | 11810 ft | 385 kts | 72° |
| 2026-04-18 12:22 | 50.61675 | 10.78954 | 11266 ft | 381 kts | 73° |
| 2026-04-18 12:22 | 50.62372 | 10.82889 | 10732 ft | 375 kts | 74° |
| 2026-04-18 12:22 | 50.63069 | 10.86870 | 10201 ft | 369 kts | 74° |
| 2026-04-18 12:22 | 50.63735 | 10.90690 | 9637 ft | 364 kts | 74° |
| 2026-04-18 12:23 | 50.64403 | 10.94496 | 9059 ft | 357 kts | 74° |
| 2026-04-18 12:23 | 50.65062 | 10.98221 | 8480 ft | 349 kts | 74° |
| 2026-04-18 12:23 | 50.65708 | 11.01841 | 7877 ft | 337 kts | 74° |
| 2026-04-18 12:23 | 50.66335 | 11.05336 | 7308 ft | 326 kts | 74° |
| 2026-04-18 12:24 | 50.66949 | 11.08725 | 6760 ft | 316 kts | 74° |
| 2026-04-18 12:24 | 50.67548 | 11.12011 | 6224 ft | 306 kts | 74° |
| 2026-04-18 12:24 | 50.68128 | 11.15189 | 5677 ft | 298 kts | 74° |
| 2026-04-18 12:24 | 50.68698 | 11.18284 | 5153 ft | 290 kts | 74° |
| 2026-04-18 12:25 | 50.69248 | 11.21295 | 4685 ft | 282 kts | 74° |
| 2026-04-18 12:25 | 50.69783 | 11.24245 | 4276 ft | 280 kts | 74° |
| 2026-04-18 12:25 | 50.70499 | 11.27068 | 4016 ft | 273 kts | 58° |
| 2026-04-18 12:25 | 50.71677 | 11.29276 | 3966 ft | 255 kts | 39° |
| 2026-04-18 12:26 | 50.73116 | 11.30685 | 3964 ft | 233 kts | 21° |
| 2026-04-18 12:26 | 50.74609 | 11.31325 | 3969 ft | 218 kts | 4° |
| 2026-04-18 12:26 | 50.76107 | 11.31310 | 3985 ft | 215 kts | 349° |
| 2026-04-18 12:26 | 50.77574 | 11.30932 | 4072 ft | 213 kts | 348° |
| 2026-04-18 12:27 | 50.79018 | 11.30549 | 4082 ft | 204 kts | 348° |
| 2026-04-18 12:27 | 50.80355 | 11.30209 | 4052 ft | 185 kts | 348° |
| 2026-04-18 12:27 | 50.81602 | 11.29896 | 4017 ft | 180 kts | 347° |
| 2026-04-18 12:27 | 50.82841 | 11.29596 | 4003 ft | 180 kts | 349° |
| 2026-04-18 12:28 | 50.84078 | 11.29299 | 3994 ft | 180 kts | 348° |
| 2026-04-18 12:28 | 50.85319 | 11.29005 | 3993 ft | 180 kts | 349° |
| 2026-04-18 12:28 | 50.86552 | 11.28716 | 3996 ft | 174 kts | 348° |
| 2026-04-18 12:28 | 50.87726 | 11.28436 | 4012 ft | 169 kts | 348° |
| 2026-04-18 12:29 | 50.88889 | 11.28150 | 4008 ft | 169 kts | 347° |
| 2026-04-18 12:29 | 50.90051 | 11.27881 | 4019 ft | 169 kts | 349° |
| 2026-04-18 12:29 | 50.91194 | 11.27609 | 3997 ft | 155 kts | 349° |
| 2026-04-18 12:29 | 50.92210 | 11.27371 | 3966 ft | 145 kts | 349° |
| 2026-04-18 12:30 | 50.93203 | 11.27125 | 3980 ft | 145 kts | 347° |
| 2026-04-18 12:30 | 50.94203 | 11.26894 | 3992 ft | 145 kts | 349° |
| 2026-04-18 12:30 | 50.95162 | 11.26495 | 3993 ft | 141 kts | 326° |
| 2026-04-18 12:30 | 50.95658 | 11.25261 | 4007 ft | 139 kts | 282° |
| 2026-04-18 12:31 | 50.95760 | 11.23740 | 4027 ft | 139 kts | 274° |
| 2026-04-18 12:31 | 50.95871 | 11.22211 | 3996 ft | 140 kts | 276° |
| 2026-04-18 12:31 | 50.95990 | 11.20684 | 3901 ft | 139 kts | 277° |
| 2026-04-18 12:31 | 50.96111 | 11.19163 | 3737 ft | 139 kts | 277° |
| 2026-04-18 12:32 | 50.96233 | 11.17638 | 3556 ft | 139 kts | 277° |
| 2026-04-18 12:32 | 50.96352 | 11.16117 | 3361 ft | 138 kts | 277° |
| 2026-04-18 12:32 | 50.96475 | 11.14608 | 3188 ft | 138 kts | 278° |
| 2026-04-18 12:32 | 50.96595 | 11.13100 | 2959 ft | 138 kts | 278° |
| 2026-04-18 12:33 | 50.96717 | 11.11585 | 2893 ft | 139 kts | 278° |
| 2026-04-18 12:33 | 50.96839 | 11.10074 | 2675 ft | 138 kts | 279° |
| 2026-04-18 12:33 | 50.96958 | 11.08571 | 2404 ft | 138 kts | 278° |
| 2026-04-18 12:33 | 50.97078 | 11.07066 | 2231 ft | 136 kts | 279° |
| 2026-04-18 12:34 | 50.97198 | 11.05563 | 2107 ft | 138 kts | 279° |
| 2026-04-18 12:34 | 50.97318 | 11.04058 | 1898 ft | 138 kts | 279° |
| 2026-04-18 12:34 | 50.97442 | 11.02540 | 1752 ft | 139 kts | 279° |
| 2026-04-18 12:34 | 50.97558 | 11.01051 | 1516 ft | 138 kts | 278° |
| 2026-04-18 12:35 | 50.97673 | 10.99546 | 1290 ft | 135 kts | 279° |
| 2026-04-18 12:35 | 50.97797 | 10.98057 | 1119 ft | 136 kts | 280° |
| 2026-04-18 12:35 | 50.97916 | 10.96604 | 1034 ft | 121 kts | 278° |
| 2026-04-18 12:35 | 50.98002 | 10.95544 | 1034 ft | 72 kts | 278° |
| 2026-04-18 12:36 | 50.98043 | 10.95037 | 1038 ft | 9 kts | 278° |
| 2026-04-18 12:36 | 50.98051 | 10.94926 | 1038 ft | 11 kts | 268° |
| 2026-04-18 12:36 | 50.97996 | 10.94858 | 1037 ft | 13 kts | 160° |
| 2026-04-18 12:36 | 50.97948 | 10.94892 | 1036 ft | 0 kts | 155° |
| 2026-04-18 12:39 | 50.97940 | 10.94898 | 1036 ft | 4 kts | 155° |
| 2026-04-18 12:39 | 50.97894 | 10.94930 | 1036 ft | 10 kts | 157° |
| 2026-04-18 12:40 | 50.97831 | 10.95000 | 1035 ft | 12 kts | 109° |
| 2026-04-18 12:40 | 50.97820 | 10.95143 | 1035 ft | 14 kts | 96° |
| 2026-04-18 12:40 | 50.97808 | 10.95304 | 1035 ft | 15 kts | 98° |
| 2026-04-18 12:40 | 50.97793 | 10.95481 | 1035 ft | 17 kts | 97° |
| 2026-04-18 12:41 | 50.97778 | 10.95673 | 1034 ft | 18 kts | 97° |
| 2026-04-18 12:41 | 50.97761 | 10.95879 | 1034 ft | 19 kts | 97° |
| 2026-04-18 12:41 | 50.97757 | 10.95913 | 1034 ft | 3 kts | 110° |
| 2026-04-18 12:41 | 50.97736 | 10.95944 | 1034 ft | 5 kts | 171° |
| 2026-04-18 12:42 | 50.97693 | 10.95936 | 1034 ft | 7 kts | 188° |
| 2026-04-18 12:42 | 50.97640 | 10.95951 | 1034 ft | 9 kts | 146° |
| 2026-04-18 12:42 | 50.97602 | 10.95984 | 1033 ft | 2 kts | 152° |
| 2026-04-18 12:42 | 50.97587 | 10.95998 | 1033 ft | 0 kts | 152° |